sensor_id;sensor_type;location;lat;lon;timestamp;temperature;humidity
6142;DHT22;71289;51.552;6.210;2023-10-13T00:01:57;17.60;99.90
6142;DHT22;71289;51.552;6.210;2023-10-13T00:04:28;17.50;99.90
6142;DHT22;71289;51.552;6.210;2023-10-13T00:06:57;17.60;99.90
6142;DHT22;71289;51.552;6.210;2023-10-13T00:09:23;17.60;99.90
6142;DHT22;71289;51.552;6.210;2023-10-13T00:12:01;17.60;99.90
6142;DHT22;71289;51.552;6.210;2023-10-13T00:14:27;17.60;99.90
6142;DHT22;71289;51.552;6.210;2023-10-13T00:17:00;17.60;99.90
6142;DHT22;71289;51.552;6.210;2023-10-13T00:19:41;17.60;99.90
6142;DHT22;71289;51.552;6.210;2023-10-13T00:22:11;17.50;99.90
6142;DHT22;71289;51.552;6.210;2023-10-13T00:24:38;17.70;99.90
6142;DHT22;71289;51.552;6.210;2023-10-13T00:27:18;17.60;99.90
6142;DHT22;71289;51.552;6.210;2023-10-13T00:29:58;17.50;99.90
6142;DHT22;71289;51.552;6.210;2023-10-13T00:32:43;17.60;99.90
6142;DHT22;71289;51.552;6.210;2023-10-13T00:35:10;17.50;99.90
6142;DHT22;71289;51.552;6.210;2023-10-13T00:37:51;17.50;99.90
6142;DHT22;71289;51.552;6.210;2023-10-13T00:40:19;17.50;99.90
6142;DHT22;71289;51.552;6.210;2023-10-13T00:42:58;17.50;99.90
6142;DHT22;71289;51.552;6.210;2023-10-13T00:45:44;17.50;99.90
6142;DHT22;71289;51.552;6.210;2023-10-13T00:48:13;17.60;99.90
6142;DHT22;71289;51.552;6.210;2023-10-13T00:50:40;17.60;99.90
6142;DHT22;71289;51.552;6.210;2023-10-13T00:53:06;17.60;99.90
6142;DHT22;71289;51.552;6.210;2023-10-13T00:55:33;17.60;99.90
6142;DHT22;71289;51.552;6.210;2023-10-13T00:58:00;17.50;99.90
6142;DHT22;71289;51.552;6.210;2023-10-13T01:00:29;17.60;99.90
6142;DHT22;71289;51.552;6.210;2023-10-13T01:02:55;17.50;99.90
6142;DHT22;71289;51.552;6.210;2023-10-13T01:05:32;17.60;99.90
6142;DHT22;71289;51.552;6.210;2023-10-13T01:08:01;17.50;99.90
6142;DHT22;71289;51.552;6.210;2023-10-13T01:10:27;17.50;99.90
6142;DHT22;71289;51.552;6.210;2023-10-13T01:12:54;17.70;99.90
6142;DHT22;71289;51.552;6.210;2023-10-13T01:15:19;17.60;99.90
6142;DHT22;71289;51.552;6.210;2023-10-13T01:18:05;17.60;99.90
6142;DHT22;71289;51.552;6.210;2023-10-13T01:20:31;17.80;99.90
6142;DHT22;71289;51.552;6.210;2023-10-13T01:22:58;17.50;99.90
6142;DHT22;71289;51.552;6.210;2023-10-13T01:25:25;17.50;99.90
6142;DHT22;71289;51.552;6.210;2023-10-13T01:27:54;17.50;99.90
6142;DHT22;71289;51.552;6.210;2023-10-13T01:30:20;17.50;99.90
6142;DHT22;71289;51.552;6.210;2023-10-13T01:32:51;17.50;99.90
6142;DHT22;71289;51.552;6.210;2023-10-13T01:35:17;17.50;99.90
6142;DHT22;71289;51.552;6.210;2023-10-13T01:38:00;17.50;99.90
6142;DHT22;71289;51.552;6.210;2023-10-13T01:40:26;17.50;99.90
6142;DHT22;71289;51.552;6.210;2023-10-13T01:42:54;17.50;99.90
6142;DHT22;71289;51.552;6.210;2023-10-13T01:45:21;17.50;99.90
6142;DHT22;71289;51.552;6.210;2023-10-13T01:47:47;17.50;99.90
6142;DHT22;71289;51.552;6.210;2023-10-13T01:50:16;17.60;99.90
6142;DHT22;71289;51.552;6.210;2023-10-13T01:52:53;17.60;99.90
6142;DHT22;71289;51.552;6.210;2023-10-13T01:55:25;17.30;99.90
6142;DHT22;71289;51.552;6.210;2023-10-13T01:57:51;17.60;99.90
6142;DHT22;71289;51.552;6.210;2023-10-13T02:00:17;17.60;99.90
6142;DHT22;71289;51.552;6.210;2023-10-13T02:02:46;17.60;99.90
6142;DHT22;71289;51.552;6.210;2023-10-13T02:05:15;17.60;99.90
6142;DHT22;71289;51.552;6.210;2023-10-13T02:07:42;17.60;99.90
6142;DHT22;71289;51.552;6.210;2023-10-13T02:10:11;17.60;99.90
6142;DHT22;71289;51.552;6.210;2023-10-13T02:12:38;17.60;99.90
6142;DHT22;71289;51.552;6.210;2023-10-13T02:15:12;17.60;99.90
6142;DHT22;71289;51.552;6.210;2023-10-13T02:17:46;17.60;99.90
6142;DHT22;71289;51.552;6.210;2023-10-13T02:20:17;17.60;99.90
6142;DHT22;71289;51.552;6.210;2023-10-13T02:22:55;17.80;99.90
6142;DHT22;71289;51.552;6.210;2023-10-13T02:25:21;17.60;99.90
6142;DHT22;71289;51.552;6.210;2023-10-13T02:28:08;17.90;99.90
6142;DHT22;71289;51.552;6.210;2023-10-13T02:30:39;17.60;99.90
6142;DHT22;71289;51.552;6.210;2023-10-13T02:33:05;17.70;99.90
6142;DHT22;71289;51.552;6.210;2023-10-13T02:35:32;17.70;99.90
6142;DHT22;71289;51.552;6.210;2023-10-13T02:38:07;17.60;99.90
6142;DHT22;71289;51.552;6.210;2023-10-13T02:40:37;17.70;99.90
6142;DHT22;71289;51.552;6.210;2023-10-13T02:43:03;17.70;99.90
6142;DHT22;71289;51.552;6.210;2023-10-13T02:45:31;17.70;99.90
6142;DHT22;71289;51.552;6.210;2023-10-13T02:47:57;17.70;99.90
6142;DHT22;71289;51.552;6.210;2023-10-13T02:50:39;17.70;99.90
6142;DHT22;71289;51.552;6.210;2023-10-13T02:53:08;17.70;99.90
6142;DHT22;71289;51.552;6.210;2023-10-13T02:55:53;17.70;99.90
6142;DHT22;71289;51.552;6.210;2023-10-13T02:58:18;17.70;99.90
6142;DHT22;71289;51.552;6.210;2023-10-13T03:00:45;17.70;99.90
6142;DHT22;71289;51.552;6.210;2023-10-13T03:03:12;17.70;99.90
6142;DHT22;71289;51.552;6.210;2023-10-13T03:05:40;17.70;99.90
6142;DHT22;71289;51.552;6.210;2023-10-13T03:08:08;17.80;99.90
6142;DHT22;71289;51.552;6.210;2023-10-13T03:10:36;17.70;99.90
6142;DHT22;71289;51.552;6.210;2023-10-13T03:13:05;17.70;99.90
6142;DHT22;71289;51.552;6.210;2023-10-13T03:15:33;17.90;99.90
6142;DHT22;71289;51.552;6.210;2023-10-13T03:18:01;17.80;99.90
6142;DHT22;71289;51.552;6.210;2023-10-13T03:20:27;17.80;99.90
6142;DHT22;71289;51.552;6.210;2023-10-13T03:22:57;17.70;99.90
6142;DHT22;71289;51.552;6.210;2023-10-13T03:25:23;17.80;99.90
6142;DHT22;71289;51.552;6.210;2023-10-13T03:27:58;17.80;99.90
6142;DHT22;71289;51.552;6.210;2023-10-13T03:30:24;17.80;99.90
6142;DHT22;71289;51.552;6.210;2023-10-13T03:33:03;17.80;99.90
6142;DHT22;71289;51.552;6.210;2023-10-13T03:35:36;17.90;99.90
6142;DHT22;71289;51.552;6.210;2023-10-13T03:38:07;17.80;99.90
6142;DHT22;71289;51.552;6.210;2023-10-13T03:40:50;17.80;99.90
6142;DHT22;71289;51.552;6.210;2023-10-13T03:43:23;17.90;99.90
6142;DHT22;71289;51.552;6.210;2023-10-13T03:45:50;17.90;99.90
6142;DHT22;71289;51.552;6.210;2023-10-13T03:48:26;17.80;99.90
6142;DHT22;71289;51.552;6.210;2023-10-13T03:50:55;18.10;99.90
6142;DHT22;71289;51.552;6.210;2023-10-13T03:53:39;17.90;99.90
6142;DHT22;71289;51.552;6.210;2023-10-13T03:56:18;17.90;99.90
6142;DHT22;71289;51.552;6.210;2023-10-13T03:58:57;17.80;99.90
6142;DHT22;71289;51.552;6.210;2023-10-13T04:01:26;17.90;99.90
6142;DHT22;71289;51.552;6.210;2023-10-13T04:04:00;17.90;99.90
6142;DHT22;71289;51.552;6.210;2023-10-13T04:06:32;17.90;99.90
6142;DHT22;71289;51.552;6.210;2023-10-13T04:09:22;17.90;99.90
6142;DHT22;71289;51.552;6.210;2023-10-13T04:12:03;17.90;99.90
6142;DHT22;71289;51.552;6.210;2023-10-13T04:14:33;17.90;99.90
6142;DHT22;71289;51.552;6.210;2023-10-13T04:17:14;17.80;99.90
6142;DHT22;71289;51.552;6.210;2023-10-13T04:19:40;17.90;99.90
6142;DHT22;71289;51.552;6.210;2023-10-13T04:22:24;17.90;99.90
6142;DHT22;71289;51.552;6.210;2023-10-13T04:25:18;18.00;99.90
6142;DHT22;71289;51.552;6.210;2023-10-13T04:30:46;17.90;99.90
6142;DHT22;71289;51.552;6.210;2023-10-13T04:33:21;17.90;99.90
6142;DHT22;71289;51.552;6.210;2023-10-13T04:36:13;17.90;99.90
6142;DHT22;71289;51.552;6.210;2023-10-13T04:38:46;18.10;99.90
6142;DHT22;71289;51.552;6.210;2023-10-13T04:41:33;17.80;99.90
6142;DHT22;71289;51.552;6.210;2023-10-13T04:44:12;17.80;99.90
6142;DHT22;71289;51.552;6.210;2023-10-13T04:46:53;17.90;99.90
6142;DHT22;71289;51.552;6.210;2023-10-13T04:49:20;17.80;99.90
6142;DHT22;71289;51.552;6.210;2023-10-13T04:52:03;17.90;99.90
6142;DHT22;71289;51.552;6.210;2023-10-13T04:54:45;17.90;99.90
6142;DHT22;71289;51.552;6.210;2023-10-13T04:57:22;17.90;99.90
6142;DHT22;71289;51.552;6.210;2023-10-13T04:59:58;17.80;99.90
6142;DHT22;71289;51.552;6.210;2023-10-13T05:02:40;17.90;99.90
6142;DHT22;71289;51.552;6.210;2023-10-13T05:05:10;17.80;99.90
6142;DHT22;71289;51.552;6.210;2023-10-13T05:07:45;17.90;99.90
6142;DHT22;71289;51.552;6.210;2023-10-13T05:10:30;17.90;99.90
6142;DHT22;71289;51.552;6.210;2023-10-13T05:13:14;17.90;99.90
6142;DHT22;71289;51.552;6.210;2023-10-13T05:15:59;17.70;99.90
6142;DHT22;71289;51.552;6.210;2023-10-13T05:18:43;17.90;99.90
6142;DHT22;71289;51.552;6.210;2023-10-13T05:21:28;17.90;99.90
6142;DHT22;71289;51.552;6.210;2023-10-13T05:24:12;17.90;99.90
6142;DHT22;71289;51.552;6.210;2023-10-13T05:26:56;17.90;99.90
6142;DHT22;71289;51.552;6.210;2023-10-13T05:29:42;17.90;99.90
6142;DHT22;71289;51.552;6.210;2023-10-13T05:32:26;17.90;99.90
6142;DHT22;71289;51.552;6.210;2023-10-13T05:35:11;18.00;99.90
6142;DHT22;71289;51.552;6.210;2023-10-13T05:37:56;17.90;99.90
6142;DHT22;71289;51.552;6.210;2023-10-13T05:41:01;18.00;99.90
6142;DHT22;71289;51.552;6.210;2023-10-13T05:43:45;17.90;99.90
6142;DHT22;71289;51.552;6.210;2023-10-13T05:46:29;17.90;99.90
6142;DHT22;71289;51.552;6.210;2023-10-13T05:49:07;17.90;99.90
6142;DHT22;71289;51.552;6.210;2023-10-13T05:51:43;18.00;99.90
6142;DHT22;71289;51.552;6.210;2023-10-13T05:54:32;17.90;99.90
6142;DHT22;71289;51.552;6.210;2023-10-13T05:57:16;18.10;99.90
6142;DHT22;71289;51.552;6.210;2023-10-13T06:00:00;17.90;99.90
6142;DHT22;71289;51.552;6.210;2023-10-13T06:02:44;17.90;99.90
6142;DHT22;71289;51.552;6.210;2023-10-13T06:05:28;18.00;99.90
6142;DHT22;71289;51.552;6.210;2023-10-13T06:08:12;18.20;99.90
6142;DHT22;71289;51.552;6.210;2023-10-13T06:11:03;18.00;99.90
6142;DHT22;71289;51.552;6.210;2023-10-13T06:13:48;18.00;99.90
6142;DHT22;71289;51.552;6.210;2023-10-13T06:16:32;18.00;99.90
6142;DHT22;71289;51.552;6.210;2023-10-13T06:19:16;18.00;99.90
6142;DHT22;71289;51.552;6.210;2023-10-13T06:22:00;18.10;99.90
6142;DHT22;71289;51.552;6.210;2023-10-13T06:24:44;18.00;99.90
6142;DHT22;71289;51.552;6.210;2023-10-13T06:27:28;18.40;99.90
6142;DHT22;71289;51.552;6.210;2023-10-13T06:30:12;18.00;99.90
6142;DHT22;71289;51.552;6.210;2023-10-13T06:32:38;18.30;99.90
6142;DHT22;71289;51.552;6.210;2023-10-13T06:35:05;18.10;99.90
6142;DHT22;71289;51.552;6.210;2023-10-13T06:37:34;18.00;99.90
6142;DHT22;71289;51.552;6.210;2023-10-13T06:40:13;18.00;99.90
6142;DHT22;71289;51.552;6.210;2023-10-13T06:42:51;18.10;99.90
6142;DHT22;71289;51.552;6.210;2023-10-13T06:45:18;18.10;99.90
6142;DHT22;71289;51.552;6.210;2023-10-13T06:47:44;18.00;99.90
6142;DHT22;71289;51.552;6.210;2023-10-13T06:50:11;18.00;99.90
6142;DHT22;71289;51.552;6.210;2023-10-13T06:52:48;18.20;99.90
6142;DHT22;71289;51.552;6.210;2023-10-13T06:55:14;18.10;99.90
6142;DHT22;71289;51.552;6.210;2023-10-13T06:57:46;18.10;99.90
6142;DHT22;71289;51.552;6.210;2023-10-13T07:00:12;18.00;99.90
6142;DHT22;71289;51.552;6.210;2023-10-13T07:02:46;18.00;99.90
6142;DHT22;71289;51.552;6.210;2023-10-13T07:05:12;18.00;99.90
6142;DHT22;71289;51.552;6.210;2023-10-13T07:07:40;18.00;99.90
6142;DHT22;71289;51.552;6.210;2023-10-13T07:10:10;17.80;99.90
6142;DHT22;71289;51.552;6.210;2023-10-13T07:12:37;18.10;99.90
6142;DHT22;71289;51.552;6.210;2023-10-13T07:15:04;18.10;99.90
6142;DHT22;71289;51.552;6.210;2023-10-13T07:17:48;18.10;99.90
6142;DHT22;71289;51.552;6.210;2023-10-13T07:20:20;18.10;99.90
6142;DHT22;71289;51.552;6.210;2023-10-13T07:22:54;18.10;99.90
6142;DHT22;71289;51.552;6.210;2023-10-13T07:25:25;18.20;99.90
6142;DHT22;71289;51.552;6.210;2023-10-13T07:27:51;18.20;99.90
6142;DHT22;71289;51.552;6.210;2023-10-13T07:30:17;18.50;99.90
6142;DHT22;71289;51.552;6.210;2023-10-13T07:32:45;18.20;99.90
6142;DHT22;71289;51.552;6.210;2023-10-13T07:35:12;18.30;99.90
6142;DHT22;71289;51.552;6.210;2023-10-13T07:37:38;18.40;99.90
6142;DHT22;71289;51.552;6.210;2023-10-13T07:40:10;18.40;99.90
6142;DHT22;71289;51.552;6.210;2023-10-13T07:42:51;18.40;99.90
6142;DHT22;71289;51.552;6.210;2023-10-13T07:45:17;18.40;99.90
6142;DHT22;71289;51.552;6.210;2023-10-13T07:47:51;18.40;99.90
6142;DHT22;71289;51.552;6.210;2023-10-13T07:50:17;18.50;99.90
6142;DHT22;71289;51.552;6.210;2023-10-13T07:52:53;18.50;99.90
6142;DHT22;71289;51.552;6.210;2023-10-13T07:55:31;18.50;99.90
6142;DHT22;71289;51.552;6.210;2023-10-13T07:57:59;18.60;99.90
6142;DHT22;71289;51.552;6.210;2023-10-13T08:00:25;18.60;99.90
6142;DHT22;71289;51.552;6.210;2023-10-13T08:03:03;18.60;99.90
6142;DHT22;71289;51.552;6.210;2023-10-13T08:05:41;18.60;99.90
6142;DHT22;71289;51.552;6.210;2023-10-13T08:08:26;18.70;99.90
6142;DHT22;71289;51.552;6.210;2023-10-13T08:10:52;18.70;99.90
6142;DHT22;71289;51.552;6.210;2023-10-13T08:13:26;18.70;99.90
6142;DHT22;71289;51.552;6.210;2023-10-13T08:15:51;18.80;99.90
6142;DHT22;71289;51.552;6.210;2023-10-13T08:18:18;18.80;99.90
6142;DHT22;71289;51.552;6.210;2023-10-13T08:21:01;18.80;99.90
6142;DHT22;71289;51.552;6.210;2023-10-13T08:23:31;18.80;99.90
6142;DHT22;71289;51.552;6.210;2023-10-13T08:26:23;18.90;99.90
6142;DHT22;71289;51.552;6.210;2023-10-13T08:28:58;18.90;99.90
6142;DHT22;71289;51.552;6.210;2023-10-13T08:31:51;18.90;99.90
6142;DHT22;71289;51.552;6.210;2023-10-13T08:34:36;18.90;99.90
6142;DHT22;71289;51.552;6.210;2023-10-13T08:37:28;18.60;99.90
6142;DHT22;71289;51.552;6.210;2023-10-13T08:39:58;18.90;99.90
6142;DHT22;71289;51.552;6.210;2023-10-13T08:42:44;19.00;99.90
6142;DHT22;71289;51.552;6.210;2023-10-13T08:45:14;19.00;99.90
6142;DHT22;71289;51.552;6.210;2023-10-13T08:48:06;19.00;99.90
6142;DHT22;71289;51.552;6.210;2023-10-13T08:53:25;19.10;99.90
6142;DHT22;71289;51.552;6.210;2023-10-13T08:58:32;19.20;99.90
6142;DHT22;71289;51.552;6.210;2023-10-13T09:01:16;19.00;99.90
6142;DHT22;71289;51.552;6.210;2023-10-13T09:04:05;19.30;99.90
6142;DHT22;71289;51.552;6.210;2023-10-13T09:12:22;19.40;99.90
6142;DHT22;71289;51.552;6.210;2023-10-13T09:17:47;19.40;99.90
6142;DHT22;71289;51.552;6.210;2023-10-13T09:20:15;19.50;99.90
6142;DHT22;71289;51.552;6.210;2023-10-13T09:22:50;19.50;99.90
6142;DHT22;71289;51.552;6.210;2023-10-13T09:25:34;19.60;99.90
6142;DHT22;71289;51.552;6.210;2023-10-13T09:28:10;19.60;99.90
6142;DHT22;71289;51.552;6.210;2023-10-13T09:30:51;19.70;99.90
6142;DHT22;71289;51.552;6.210;2023-10-13T09:33:22;19.70;99.90
6142;DHT22;71289;51.552;6.210;2023-10-13T09:35:58;19.70;99.90
6142;DHT22;71289;51.552;6.210;2023-10-13T09:38:28;19.70;99.90
6142;DHT22;71289;51.552;6.210;2023-10-13T09:40:54;19.80;99.90
6142;DHT22;71289;51.552;6.210;2023-10-13T09:43:23;19.70;99.90
6142;DHT22;71289;51.552;6.210;2023-10-13T09:45:51;19.80;99.90
6142;DHT22;71289;51.552;6.210;2023-10-13T09:48:35;19.80;99.90
6142;DHT22;71289;51.552;6.210;2023-10-13T09:51:04;19.80;99.90
6142;DHT22;71289;51.552;6.210;2023-10-13T09:53:34;19.80;99.90
6142;DHT22;71289;51.552;6.210;2023-10-13T09:56:18;19.80;99.90
6142;DHT22;71289;51.552;6.210;2023-10-13T09:58:57;19.80;99.90
6142;DHT22;71289;51.552;6.210;2023-10-13T10:01:30;19.90;99.90
6142;DHT22;71289;51.552;6.210;2023-10-13T10:04:11;19.90;99.90
6142;DHT22;71289;51.552;6.210;2023-10-13T10:06:58;20.00;99.90
6142;DHT22;71289;51.552;6.210;2023-10-13T10:09:31;20.00;99.90
6142;DHT22;71289;51.552;6.210;2023-10-13T10:12:24;20.10;99.90
6142;DHT22;71289;51.552;6.210;2023-10-13T10:15:09;20.20;99.90
6142;DHT22;71289;51.552;6.210;2023-10-13T10:17:46;20.30;99.90
6142;DHT22;71289;51.552;6.210;2023-10-13T10:20:13;20.30;99.90
6142;DHT22;71289;51.552;6.210;2023-10-13T10:22:59;20.40;99.90
6142;DHT22;71289;51.552;6.210;2023-10-13T10:25:34;20.80;99.90
6142;DHT22;71289;51.552;6.210;2023-10-13T10:28:06;20.50;99.90
6142;DHT22;71289;51.552;6.210;2023-10-13T10:30:37;20.60;99.90
6142;DHT22;71289;51.552;6.210;2023-10-13T10:33:04;20.70;99.90
6142;DHT22;71289;51.552;6.210;2023-10-13T10:35:45;20.70;99.90
6142;DHT22;71289;51.552;6.210;2023-10-13T10:38:18;20.70;99.90
6142;DHT22;71289;51.552;6.210;2023-10-13T10:41:01;20.70;99.90
6142;DHT22;71289;51.552;6.210;2023-10-13T10:46:18;20.80;99.90
6142;DHT22;71289;51.552;6.210;2023-10-13T10:48:44;20.90;99.90
6142;DHT22;71289;51.552;6.210;2023-10-13T10:51:14;21.00;99.90
6142;DHT22;71289;51.552;6.210;2023-10-13T10:53:41;21.20;99.90
6142;DHT22;71289;51.552;6.210;2023-10-13T10:56:11;21.10;99.90
6142;DHT22;71289;51.552;6.210;2023-10-13T10:58:50;21.30;99.90
6142;DHT22;71289;51.552;6.210;2023-10-13T11:01:24;21.50;99.90
6142;DHT22;71289;51.552;6.210;2023-10-13T11:04:05;21.60;99.90
6142;DHT22;71289;51.552;6.210;2023-10-13T11:06:37;21.70;99.90
6142;DHT22;71289;51.552;6.210;2023-10-13T11:09:11;21.80;99.90
6142;DHT22;71289;51.552;6.210;2023-10-13T11:11:53;21.80;99.90
6142;DHT22;71289;51.552;6.210;2023-10-13T11:14:26;21.80;99.90
6142;DHT22;71289;51.552;6.210;2023-10-13T11:16:54;21.80;99.90
6142;DHT22;71289;51.552;6.210;2023-10-13T11:19:36;21.90;99.90
6142;DHT22;71289;51.552;6.210;2023-10-13T11:22:16;22.00;99.90
6142;DHT22;71289;51.552;6.210;2023-10-13T11:25:02;21.80;99.90
6142;DHT22;71289;51.552;6.210;2023-10-13T11:27:37;22.20;99.90
6142;DHT22;71289;51.552;6.210;2023-10-13T11:30:10;22.40;99.90
6142;DHT22;71289;51.552;6.210;2023-10-13T11:32:39;22.60;99.90
6142;DHT22;71289;51.552;6.210;2023-10-13T11:35:08;23.00;99.90
6142;DHT22;71289;51.552;6.210;2023-10-13T11:37:46;23.40;99.90
6142;DHT22;71289;51.552;6.210;2023-10-13T11:40:23;23.70;99.90
6142;DHT22;71289;51.552;6.210;2023-10-13T11:43:08;23.90;99.90
6142;DHT22;71289;51.552;6.210;2023-10-13T11:45:41;24.00;99.90
6142;DHT22;71289;51.552;6.210;2023-10-13T11:48:25;24.00;99.90
6142;DHT22;71289;51.552;6.210;2023-10-13T11:51:05;24.00;99.90
6142;DHT22;71289;51.552;6.210;2023-10-13T11:53:34;23.90;99.90
6142;DHT22;71289;51.552;6.210;2023-10-13T11:56:04;23.90;99.90
6142;DHT22;71289;51.552;6.210;2023-10-13T11:58:35;23.80;99.90
6142;DHT22;71289;51.552;6.210;2023-10-13T12:01:00;23.70;99.90
6142;DHT22;71289;51.552;6.210;2023-10-13T12:03:35;23.70;99.90
6142;DHT22;71289;51.552;6.210;2023-10-13T12:06:19;23.70;99.90
6142;DHT22;71289;51.552;6.210;2023-10-13T12:08:58;23.60;99.90
6142;DHT22;71289;51.552;6.210;2023-10-13T12:11:36;23.60;99.90
6142;DHT22;71289;51.552;6.210;2023-10-13T12:14:04;23.60;99.90
6142;DHT22;71289;51.552;6.210;2023-10-13T12:16:48;23.60;99.90
6142;DHT22;71289;51.552;6.210;2023-10-13T12:19:23;23.60;99.90
6142;DHT22;71289;51.552;6.210;2023-10-13T12:21:50;23.60;99.90
6142;DHT22;71289;51.552;6.210;2023-10-13T12:24:20;23.70;99.90
6142;DHT22;71289;51.552;6.210;2023-10-13T12:27:06;24.00;99.90
6142;DHT22;71289;51.552;6.210;2023-10-13T12:29:48;23.70;99.90
6142;DHT22;71289;51.552;6.210;2023-10-13T12:32:14;23.50;99.90
6142;DHT22;71289;51.552;6.210;2023-10-13T12:34:41;23.70;99.90
6142;DHT22;71289;51.552;6.210;2023-10-13T12:37:26;23.70;99.90
6142;DHT22;71289;51.552;6.210;2023-10-13T12:40:05;23.70;99.90
6142;DHT22;71289;51.552;6.210;2023-10-13T12:42:50;23.70;99.90
6142;DHT22;71289;51.552;6.210;2023-10-13T12:45:47;23.80;99.90
6142;DHT22;71289;51.552;6.210;2023-10-13T12:48:33;23.80;99.90
6142;DHT22;71289;51.552;6.210;2023-10-13T12:51:17;23.80;99.90
6142;DHT22;71289;51.552;6.210;2023-10-13T12:53:50;23.80;99.90
6142;DHT22;71289;51.552;6.210;2023-10-13T12:56:17;23.80;99.90
6142;DHT22;71289;51.552;6.210;2023-10-13T12:58:45;23.80;99.90
6142;DHT22;71289;51.552;6.210;2023-10-13T13:01:21;23.80;99.90
6142;DHT22;71289;51.552;6.210;2023-10-13T13:03:47;23.80;99.90
6142;DHT22;71289;51.552;6.210;2023-10-13T13:06:18;23.70;99.90
6142;DHT22;71289;51.552;6.210;2023-10-13T13:08:51;23.70;99.90
6142;DHT22;71289;51.552;6.210;2023-10-13T13:11:16;23.60;99.90
6142;DHT22;71289;51.552;6.210;2023-10-13T13:13:42;23.70;99.90
6142;DHT22;71289;51.552;6.210;2023-10-13T13:16:07;23.60;99.90
6142;DHT22;71289;51.552;6.210;2023-10-13T13:18:33;23.60;99.90
6142;DHT22;71289;51.552;6.210;2023-10-13T13:21:00;23.60;99.90
6142;DHT22;71289;51.552;6.210;2023-10-13T13:23:27;23.60;99.90
6142;DHT22;71289;51.552;6.210;2023-10-13T13:25:53;23.50;99.90
6142;DHT22;71289;51.552;6.210;2023-10-13T13:28:19;23.50;99.90
6142;DHT22;71289;51.552;6.210;2023-10-13T13:30:45;23.50;99.90
6142;DHT22;71289;51.552;6.210;2023-10-13T13:33:16;23.40;99.90
6142;DHT22;71289;51.552;6.210;2023-10-13T13:35:42;23.40;99.90
6142;DHT22;71289;51.552;6.210;2023-10-13T13:38:14;23.40;99.90
6142;DHT22;71289;51.552;6.210;2023-10-13T13:40:47;23.40;99.90
6142;DHT22;71289;51.552;6.210;2023-10-13T13:43:20;23.40;99.90
6142;DHT22;71289;51.552;6.210;2023-10-13T13:46:04;23.40;99.90
6142;DHT22;71289;51.552;6.210;2023-10-13T13:48:37;23.30;99.90
6142;DHT22;71289;51.552;6.210;2023-10-13T13:51:07;23.30;99.90
6142;DHT22;71289;51.552;6.210;2023-10-13T13:53:45;23.30;99.90
6142;DHT22;71289;51.552;6.210;2023-10-13T13:56:14;23.30;99.90
6142;DHT22;71289;51.552;6.210;2023-10-13T13:58:43;23.30;99.90
6142;DHT22;71289;51.552;6.210;2023-10-13T14:01:08;23.30;99.90
6142;DHT22;71289;51.552;6.210;2023-10-13T14:03:41;23.30;99.90
6142;DHT22;71289;51.552;6.210;2023-10-13T14:06:17;23.30;99.90
6142;DHT22;71289;51.552;6.210;2023-10-13T14:08:51;23.20;99.90
6142;DHT22;71289;51.552;6.210;2023-10-13T14:11:21;22.90;99.90
6142;DHT22;71289;51.552;6.210;2023-10-13T14:13:46;23.10;99.90
6142;DHT22;71289;51.552;6.210;2023-10-13T14:16:19;23.10;99.90
6142;DHT22;71289;51.552;6.210;2023-10-13T14:18:49;23.00;99.90
6142;DHT22;71289;51.552;6.210;2023-10-13T14:21:15;23.00;99.90
6142;DHT22;71289;51.552;6.210;2023-10-13T14:23:44;23.00;99.90
6142;DHT22;71289;51.552;6.210;2023-10-13T14:26:17;23.00;99.90
6142;DHT22;71289;51.552;6.210;2023-10-13T14:28:49;23.00;99.90
6142;DHT22;71289;51.552;6.210;2023-10-13T14:31:32;22.90;99.90
6142;DHT22;71289;51.552;6.210;2023-10-13T14:33:59;22.90;99.90
6142;DHT22;71289;51.552;6.210;2023-10-13T14:36:25;22.90;99.90
6142;DHT22;71289;51.552;6.210;2023-10-13T14:38:57;22.80;99.90
6142;DHT22;71289;51.552;6.210;2023-10-13T14:41:22;22.80;99.90
6142;DHT22;71289;51.552;6.210;2023-10-13T14:43:48;22.80;99.90
6142;DHT22;71289;51.552;6.210;2023-10-13T14:46:17;22.70;99.90
6142;DHT22;71289;51.552;6.210;2023-10-13T14:48:43;22.70;99.90
6142;DHT22;71289;51.552;6.210;2023-10-13T14:51:12;22.70;99.90
6142;DHT22;71289;51.552;6.210;2023-10-13T14:53:44;22.60;99.90
6142;DHT22;71289;51.552;6.210;2023-10-13T14:56:16;22.60;99.90
6142;DHT22;71289;51.552;6.210;2023-10-13T14:58:44;22.70;99.90
6142;DHT22;71289;51.552;6.210;2023-10-13T15:01:18;22.50;99.90
6142;DHT22;71289;51.552;6.210;2023-10-13T15:03:45;22.50;99.90
6142;DHT22;71289;51.552;6.210;2023-10-13T15:06:18;22.30;99.90
6142;DHT22;71289;51.552;6.210;2023-10-13T15:08:47;22.40;99.90
6142;DHT22;71289;51.552;6.210;2023-10-13T15:11:14;22.40;99.90
6142;DHT22;71289;51.552;6.210;2023-10-13T15:13:42;22.40;99.90
6142;DHT22;71289;51.552;6.210;2023-10-13T15:16:18;22.30;99.90
6142;DHT22;71289;51.552;6.210;2023-10-13T15:18:45;22.30;99.90
6142;DHT22;71289;51.552;6.210;2023-10-13T15:21:18;22.30;99.90
6142;DHT22;71289;51.552;6.210;2023-10-13T15:23:44;22.30;99.90
6142;DHT22;71289;51.552;6.210;2023-10-13T15:26:10;22.30;99.90
6142;DHT22;71289;51.552;6.210;2023-10-13T15:28:38;22.30;99.90
6142;DHT22;71289;51.552;6.210;2023-10-13T15:31:11;22.20;99.90
6142;DHT22;71289;51.552;6.210;2023-10-13T15:33:50;22.20;99.90
6142;DHT22;71289;51.552;6.210;2023-10-13T15:36:23;22.20;99.90
6142;DHT22;71289;51.552;6.210;2023-10-13T15:38:52;22.20;99.90
6142;DHT22;71289;51.552;6.210;2023-10-13T15:41:24;22.10;99.90
6142;DHT22;71289;51.552;6.210;2023-10-13T15:43:50;22.10;99.90
6142;DHT22;71289;51.552;6.210;2023-10-13T15:46:18;22.10;99.90
6142;DHT22;71289;51.552;6.210;2023-10-13T15:48:48;22.10;99.90
6142;DHT22;71289;51.552;6.210;2023-10-13T15:51:14;22.10;99.90
6142;DHT22;71289;51.552;6.210;2023-10-13T15:53:39;22.00;99.90
6142;DHT22;71289;51.552;6.210;2023-10-13T15:56:05;22.10;99.90
6142;DHT22;71289;51.552;6.210;2023-10-13T15:58:46;22.00;99.90
6142;DHT22;71289;51.552;6.210;2023-10-13T16:01:13;22.10;99.90
6142;DHT22;71289;51.552;6.210;2023-10-13T16:03:43;21.90;99.90
6142;DHT22;71289;51.552;6.210;2023-10-13T16:06:15;21.70;99.90
6142;DHT22;71289;51.552;6.210;2023-10-13T16:08:41;21.60;99.90
6142;DHT22;71289;51.552;6.210;2023-10-13T16:11:11;21.30;99.90
6142;DHT22;71289;51.552;6.210;2023-10-13T16:13:44;21.40;99.90
6142;DHT22;71289;51.552;6.210;2023-10-13T16:16:16;21.40;99.90
6142;DHT22;71289;51.552;6.210;2023-10-13T16:18:43;21.40;99.90
6142;DHT22;71289;51.552;6.210;2023-10-13T16:21:09;21.20;99.90
6142;DHT22;71289;51.552;6.210;2023-10-13T16:23:38;21.20;99.90
6142;DHT22;71289;51.552;6.210;2023-10-13T16:26:04;21.10;99.90
6142;DHT22;71289;51.552;6.210;2023-10-13T16:28:33;21.00;99.90
6142;DHT22;71289;51.552;6.210;2023-10-13T16:31:00;20.90;99.90
6142;DHT22;71289;51.552;6.210;2023-10-13T16:33:25;20.80;99.90
6142;DHT22;71289;51.552;6.210;2023-10-13T16:35:53;20.70;99.90
6142;DHT22;71289;51.552;6.210;2023-10-13T16:38:20;20.60;99.90
6142;DHT22;71289;51.552;6.210;2023-10-13T16:40:51;20.50;99.90
6142;DHT22;71289;51.552;6.210;2023-10-13T16:43:17;20.70;99.90
6142;DHT22;71289;51.552;6.210;2023-10-13T16:45:43;20.40;99.90